Time;durP1;ratioP1;P1;durP2;ratioP2;P2;SDS_P1;SDS_P2;PMS_P1;PMS_P2;Temp;Humidity;BMP_temperature;BMP_pressure;BME280_temperature;BME280_humidity;BME280_pressure;Samples;Min_cycle;Max_cycle;Signal;HPM_P1;HPM_P2
2022/08/07 00:00:49;;;;;;;9.85;7.50;;;;;;;;;;5067338;28;20511;-77
2022/08/07 00:03:14;;;;;;;10.05;6.93;;;14.30;99.90;;;;;;5069226;28;20429;-77
2022/08/07 00:05:40;;;;;;;12.10;7.53;;;;;;;;;;5092571;28;20546;-77
2022/08/07 00:08:06;;;;;;;9.63;7.18;;;;;;;;;;5087096;28;20429;-77
2022/08/07 00:10:32;;;;;;;8.60;6.85;;;;;;;;;;5070995;28;20759;-77
2022/08/07 00:13:03;;;;;;;9.20;7.23;;;14.20;99.90;;;;;;5097805;28;20499;-77
2022/08/07 00:15:30;;;;;;;9.93;7.63;;;;;;;;;;5089707;28;21252;-78
2022/08/07 00:17:56;;;;;;;9.70;7.32;;;14.10;99.90;;;;;;5068992;28;20841;-78
2022/08/07 00:20:22;;;;;;;9.57;7.17;;;;;;;;;;5071141;28;20419;-78
2022/08/07 00:22:48;;;;;;;9.15;6.95;;;13.80;99.90;;;;;;5098345;28;20409;-78
2022/08/07 00:25:14;;;;;;;10.47;7.40;;;;;;;;;;5107577;28;20397;-78
2022/08/07 00:27:40;;;;;;;8.75;7.10;;;;;;;;;;5069847;28;20417;-78
2022/08/07 00:30:06;;;;;;;9.73;6.75;;;;;;;;;;5105227;28;20420;-78
2022/08/07 00:32:32;;;;;;;8.60;6.60;;;;;;;;;;5086762;28;20488;-78
2022/08/07 00:34:58;;;;;;;11.63;6.80;;;;;;;;;;5092501;28;20423;-78
2022/08/07 00:37:25;;;;;;;10.57;7.40;;;;;;;;;;5069475;28;20450;-78
2022/08/07 00:39:53;;;;;;;10.25;7.30;;;;;;;;;;5090876;28;20505;-78
2022/08/07 00:42:20;;;;;;;10.02;7.72;;;13.20;99.90;;;;;;5086644;28;20399;-78
2022/08/07 00:44:46;;;;;;;10.68;7.50;;;;;;;;;;5090210;28;20938;-78
2022/08/07 00:47:12;;;;;;;10.52;8.07;;;;;;;;;;5080678;28;20416;-78
2022/08/07 00:49:38;;;;;;;11.45;8.40;;;;;;;;;;5073059;28;20566;-77
2022/08/07 00:52:05;;;;;;;12.32;9.18;;;;;;;;;;5057817;28;20421;-77
2022/08/07 00:54:32;;;;;;;12.18;8.90;;;;;;;;;;5068930;28;20464;-78
2022/08/07 00:56:58;;;;;;;11.40;8.70;;;;;;;;;;5085772;28;20796;-78
2022/08/07 00:59:24;;;;;;;13.00;9.35;;;;;;;;;;5073461;28;20412;-78
2022/08/07 01:01:50;;;;;;;11.65;9.00;;;;;;;;;;5089909;28;20418;-78
2022/08/07 01:04:17;;;;;;;12.50;8.13;;;;;;;;;;5064859;28;20421;-78
2022/08/07 01:06:44;;;;;;;13.52;8.90;;;;;;;;;;5068616;28;20402;-78
2022/08/07 01:09:11;;;;;;;10.65;9.07;;;;;;;;;;5088259;28;20511;-77
2022/08/07 01:11:38;;;;;;;10.37;8.20;;;13.30;99.90;;;;;;5076259;28;20890;-76
2022/08/07 01:14:04;;;;;;;11.55;9.07;;;;;;;;;;5083050;28;20446;-76
2022/08/07 01:16:30;;;;;;;11.18;8.55;;;;;;;;;;5046814;28;20504;-76
2022/08/07 01:18:57;;;;;;;13.18;8.48;;;;;;;;;;5085057;28;20398;-76
2022/08/07 01:21:25;;;;;;;11.07;8.30;;;;;;;;;;5052200;28;20416;-76
2022/08/07 01:23:52;;;;;;;11.43;8.43;;;13.00;99.90;;;;;;5044286;28;20405;-76
2022/08/07 01:26:20;;;;;;;11.07;8.73;;;13.00;99.90;;;;;;5052765;28;20430;-76
2022/08/07 01:28:47;;;;;;;11.15;8.60;;;;;;;;;;5074902;28;20411;-78
2022/08/07 01:31:15;;;;;;;11.05;8.73;;;13.00;99.90;;;;;;5073952;28;20481;-78
2022/08/07 01:33:41;;;;;;;14.45;9.35;;;;;;;;;;5092791;28;20406;-79
2022/08/07 01:36:09;;;;;;;12.85;8.95;;;;;;;;;;5086811;28;20444;-78
2022/08/07 01:38:35;;;;;;;12.17;9.07;;;;;;;;;;5073359;28;20449;-78
2022/08/07 05:43:33;;;;;;;19.23;9.13;;;12.80;99.90;;;;;;5172105;27;20344;-78
2022/08/07 05:46:01;;;;;;;27.25;9.45;;;13.10;99.90;;;;;;5102838;28;20408;-77
2022/08/07 05:48:28;;;;;;;27.52;10.50;;;13.20;99.90;;;;;;5109127;27;20418;-78
2022/08/07 05:50:56;;;;;;;23.85;11.18;;;13.30;99.90;;;;;;5122163;28;20422;-78
2022/08/07 05:55:54;;;;;;;24.02;10.70;;;;;;;;;;5100463;27;21120;-78
2022/08/07 05:58:23;;;;;;;28.27;10.65;;;13.60;99.90;;;;;;5089327;28;20762;-78
2022/08/07 06:00:50;;;;;;;19.83;9.57;;;13.70;99.90;;;;;;5084850;28;20407;-78
2022/08/07 06:03:18;;;;;;;16.70;9.52;;;;;;;;;;5089638;28;20406;-78
2022/08/07 06:05:46;;;;;;;17.02;9.63;;;13.60;99.90;;;;;;5104966;28;20827;-78
2022/08/07 06:08:12;;;;;;;15.48;10.00;;;;;;;;;;5120949;28;20842;-77
2022/08/07 06:10:38;;;;;;;14.52;9.77;;;;;;;;;;5096174;28;20480;-77
2022/08/07 06:13:05;;;;;;;14.02;10.10;;;;;;;;;;5099410;28;20914;-77
2022/08/07 06:15:34;;;;;;;16.53;9.60;;;14.30;99.90;;;;;;5086732;28;20993;-77
2022/08/07 06:18:01;;;;;;;15.75;10.10;;;14.70;99.90;;;;;;5070091;28;20760;-77
2022/08/07 06:20:29;;;;;;;15.93;10.30;;;14.70;99.90;;;;;;5087833;28;20874;-78
2022/08/07 06:22:57;;;;;;;13.13;9.30;;;14.90;99.90;;;;;;5082948;28;20403;-77
2022/08/07 06:25:23;;;;;;;12.90;9.27;;;;;;;;;;5068050;28;20734;-78
2022/08/07 06:27:49;;;;;;;11.55;8.00;;;;;;;;;;5098847;28;20447;-77
2022/08/07 06:30:15;;;;;;;11.23;8.23;;;;;;;;;;5104665;28;20430;-77
2022/08/07 06:32:41;;;;;;;12.70;8.57;;;;;;;;;;5121878;28;20407;-77
2022/08/07 06:35:07;;;;;;;11.75;8.80;;;15.60;99.90;;;;;;5120610;28;20427;-78
2022/08/07 06:37:33;;;;;;;11.45;8.90;;;;;;;;;;5087552;28;20855;-77
2022/08/07 06:39:59;;;;;;;12.43;8.85;;;;;;;;;;5123770;28;20891;-76
2022/08/07 06:42:29;;;;;;;12.82;8.48;;;16.00;99.90;;;;;;5108284;28;20498;-78
2022/08/07 06:44:56;;;;;;;12.33;7.47;;;16.00;99.90;;;;;;5082571;28;20419;-78
2022/08/07 06:47:23;;;;;;;11.20;7.78;;;;;;;;;;5087322;28;20872;-78
2022/08/07 06:49:49;;;;;;;12.00;7.53;;;;;;;;;;5121173;28;20409;-78
2022/08/07 06:52:17;;;;;;;10.43;7.20;;;16.70;99.90;;;;;;5103996;28;20427;-77
2022/08/07 06:54:44;;;;;;;9.07;6.80;;;17.00;99.90;;;;;;5086971;28;20775;-77
2022/08/07 06:57:12;;;;;;;9.73;6.80;;;16.90;99.90;;;;;;5070169;28;20576;-78
2022/08/07 06:59:40;;;;;;;12.07;6.60;;;17.00;99.90;;;;;;5121273;28;20452;-77
2022/08/07 07:02:14;;;;;;;7.20;5.95;;;17.20;99.90;;;;;;5104039;28;20399;-77
2022/08/07 07:04:45;;;;;;;8.70;6.20;;;17.60;99.90;;;;;;5120998;28;20399;-78
2022/08/07 07:07:11;;;;;;;7.70;5.60;;;;;;;;;;5106054;28;20429;-78
2022/08/07 07:09:42;;;;;;;8.17;5.37;;;17.50;99.90;;;;;;5079653;28;20436;-77
2022/08/07 07:12:27;;;;;;;6.57;4.68;;;;;;;;;;5093482;28;20435;-78
2022/08/07 07:15:13;;;;;;;7.90;5.45;;;;;;;;;;5075842;28;20465;-79
2022/08/07 07:17:43;;;;;;;7.60;4.40;;;;;;;;;;5088380;28;20419;-79
2022/08/07 07:20:20;;;;;;;6.97;4.03;;;;;;;;;;5072120;28;20419;-79
2022/08/07 07:22:47;;;;;;;6.53;4.50;;;18.30;99.90;;;;;;5064443;28;20428;-78
2022/08/07 07:25:15;;;;;;;6.15;3.83;;;18.50;99.90;;;;;;5052047;28;20907;-78
2022/08/07 07:27:55;;;;;;;4.97;3.70;;;18.20;99.90;;;;;;5104099;28;20473;-78
2022/08/07 07:30:27;;;;;;;5.80;3.60;;;18.70;99.90;;;;;;5083242;28;20427;-78
2022/08/07 07:32:54;;;;;;;5.55;3.50;;;;;;;;;;5088131;28;20429;-77
2022/08/07 07:35:21;;;;;;;5.55;3.70;;;;;;;;;;5072487;28;20430;-77
2022/08/07 07:37:49;;;;;;;4.93;2.95;;;18.80;99.90;;;;;;5073958;28;20473;-77
2022/08/07 07:40:16;;;;;;;4.97;3.55;;;;;;;;;;5071559;28;20407;-77
2022/08/07 07:42:43;;;;;;;6.63;4.32;;;19.20;99.90;;;;;;5088320;28;20431;-77
2022/08/07 07:45:11;;;;;;;7.88;4.40;;;;;;;;;;5106750;28;20864;-77
2022/08/07 07:47:40;;;;;;;5.33;3.93;;;19.40;99.90;;;;;;5072676;28;20480;-77
2022/08/07 07:50:08;;;;;;;5.80;3.70;;;19.40;99.90;;;;;;5072656;28;20420;-77
2022/08/07 07:52:36;;;;;;;6.47;4.22;;;19.40;99.90;;;;;;5080498;28;20440;-78
2022/08/07 07:55:03;;;;;;;6.85;4.32;;;19.50;99.90;;;;;;5060226;28;20424;-79
2022/08/07 07:57:30;;;;;;;5.95;4.10;;;19.50;99.90;;;;;;5069065;28;20498;-81
2022/08/07 07:59:59;;;;;;;7.10;4.22;;;19.80;99.90;;;;;;5088366;28;20427;-80
2022/08/07 08:02:27;;;;;;;6.93;4.28;;;19.80;99.90;;;;;;5089017;28;20598;-79
2022/08/07 08:04:54;;;;;;;8.10;4.43;;;19.50;99.90;;;;;;5096715;28;20930;-80
2022/08/07 08:07:21;;;;;;;5.88;4.53;;;19.70;99.90;;;;;;5052578;28;20410;-80
2022/08/07 08:09:49;;;;;;;6.70;4.55;;;19.60;99.90;;;;;;5075056;28;20757;-80
2022/08/07 08:12:16;;;;;;;6.70;4.20;;;20.20;99.90;;;;;;5085930;28;20408;-81
2022/08/07 08:14:42;;;;;;;6.10;3.80;;;20.30;99.90;;;;;;5019077;28;20437;-80
2022/08/07 08:17:11;;;;;;;6.05;3.88;;;20.40;99.90;;;;;;5036913;28;20416;-80
2022/08/07 08:19:40;;;;;;;6.38;3.70;;;19.80;99.90;;;;;;5105307;28;20417;-80
2022/08/07 08:27:42;;;;;;;5.25;3.78;;;20.20;99.90;;;;;;5097560;28;20427;-79
2022/08/07 08:30:12;;;;;;;5.40;3.65;;;20.20;99.90;;;;;;5063256;28;20511;-79
2022/08/07 08:32:42;;;;;;;5.38;3.70;;;20.70;99.90;;;;;;5080714;28;20968;-79
2022/08/07 08:35:16;;;;;;;5.00;3.30;;;20.70;99.90;;;;;;5066518;28;20915;-79
2022/08/07 08:37:45;;;;;;;4.53;3.30;;;20.70;99.90;;;;;;5066454;28;20806;-79
2022/08/07 08:40:21;;;;;;;5.80;3.60;;;20.50;99.90;;;;;;5065103;28;20399;-79
2022/08/07 08:42:55;;;;;;;7.30;3.88;;;20.70;99.90;;;;;;5098861;28;20514;-80
2022/08/07 08:45:30;;;;;;;6.57;3.25;;;20.80;99.90;;;;;;5099178;28;20426;-79
2022/08/07 08:48:01;;;;;;;8.38;3.75;;;20.80;99.90;;;;;;5064847;28;20419;-79
2022/08/07 08:50:36;;;;;;;5.30;3.42;;;20.40;99.90;;;;;;5066308;28;20431;-79
2022/08/07 08:53:09;;;;;;;5.95;3.47;;;20.20;99.90;;;;;;5065972;28;20527;-79
2022/08/07 08:55:56;;;;;;;5.45;3.00;;;20.40;99.90;;;;;;5064121;28;20463;-79
2022/08/07 08:58:28;;;;;;;6.22;3.80;;;20.80;99.90;;;;;;5081776;28;20400;-80
2022/08/07 09:01:01;;;;;;;5.60;3.47;;;20.60;99.90;;;;;;5066393;28;20510;-80
2022/08/07 09:03:43;;;;;;;5.45;3.55;;;20.50;99.90;;;;;;5064795;28;20896;-79
2022/08/07 09:06:16;;;;;;;5.50;3.60;;;20.30;99.90;;;;;;5065789;28;20460;-79
2022/08/07 09:09:10;;;;;;;5.22;3.50;;;20.70;99.90;;;;;;5047140;28;20557;-79
2022/08/07 09:11:42;;;;;;;4.78;2.90;;;20.90;99.90;;;;;;5049405;28;20420;-79
2022/08/07 09:14:17;;;;;;;5.40;3.58;;;20.90;99.90;;;;;;5049336;28;20915;-79
2022/08/07 09:16:46;;;;;;;5.38;3.40;;;21.50;99.90;;;;;;5048146;28;20484;-79
2022/08/07 09:19:27;;;;;;;4.25;3.08;;;21.40;99.90;;;;;;5079688;28;20441;-79
2022/08/07 09:22:22;;;;;;;4.80;3.33;;;21.60;99.90;;;;;;5050363;28;20395;-80
2022/08/07 09:25:12;;;;;;;4.40;2.97;;;22.60;99.90;;;;;;5066565;28;20427;-80
2022/08/07 09:27:56;;;;;;;5.70;3.03;;;21.20;99.90;;;;;;5065504;28;20432;-80
2022/08/07 09:30:24;;;;;;;4.93;2.88;;;21.00;99.90;;;;;;5050412;28;20453;-80
2022/08/07 09:33:05;;;;;;;5.38;2.70;;;20.70;99.90;;;;;;5074577;28;20457;-79
2022/08/07 09:35:39;;;;;;;4.15;2.70;;;20.60;99.90;;;;;;5083992;28;20438;-80
2022/08/07 09:38:07;;;;;;;4.40;2.47;;;20.50;99.90;;;;;;5067373;28;20396;-80
2022/08/07 09:41:05;;;;;;;5.57;3.00;;;20.80;99.90;;;;;;5065762;28;20399;-79
2022/08/07 09:43:51;;;;;;;4.13;2.67;;;21.00;99.90;;;;;;5084383;28;20399;-79
2022/08/07 09:46:22;;;;;;;4.93;2.88;;;21.30;99.90;;;;;;5100906;28;20476;-80
2022/08/07 09:48:50;;;;;;;4.72;3.00;;;21.20;99.90;;;;;;5067226;28;20395;-79
2022/08/07 09:51:40;;;;;;;4.83;2.57;;;21.60;99.90;;;;;;5069860;28;20419;-77
2022/08/07 09:54:17;;;;;;;3.57;2.40;;;21.60;99.90;;;;;;5104056;28;20431;-78
2022/08/07 09:56:49;;;;;;;4.18;2.50;;;21.70;99.90;;;;;;5070752;28;20399;-77
2022/08/07 09:59:56;;;;;;;4.43;2.78;;;22.00;99.90;;;;;;5070058;28;20494;-78
2022/08/07 10:02:43;;;;;;;4.03;2.28;;;22.20;99.90;;;;;;5070251;28;20507;-79
2022/08/07 10:05:30;;;;;;;3.83;2.30;;;22.60;99.90;;;;;;5067919;28;20522;-75
2022/08/07 10:08:24;;;;;;;3.65;2.40;;;22.90;99.90;;;;;;5068692;28;20435;-74
2022/08/07 10:11:24;;;;;;;3.28;2.22;;;22.90;99.90;;;;;;5051864;28;20427;-77
2022/08/07 10:13:59;;;;;;;3.80;2.40;;;22.60;99.90;;;;;;5083376;28;20492;-76
2022/08/07 10:16:27;;;;;;;3.33;2.33;;;22.70;99.90;;;;;;5048622;28;20500;-77
2022/08/07 10:19:28;;;;;;;3.40;2.33;;;22.60;99.90;;;;;;5083654;28;20509;-78
2022/08/07 10:22:19;;;;;;;4.00;2.30;;;22.80;99.90;;;;;;5069669;28;20505;-75
2022/08/07 10:24:52;;;;;;;4.25;2.20;;;23.20;99.90;;;;;;5102226;28;20454;-75
2022/08/07 10:27:42;;;;;;;4.22;2.20;;;23.20;99.90;;;;;;5068629;28;20498;-74
2022/08/07 10:30:13;;;;;;;3.35;2.08;;;22.70;99.90;;;;;;5095725;28;20942;-74
2022/08/07 10:32:45;;;;;;;3.17;1.93;;;22.40;99.90;;;;;;5072248;28;20923;-74
2022/08/07 10:35:16;;;;;;;3.65;1.98;;;22.30;99.90;;;;;;5069061;28;20423;-75
2022/08/07 10:38:19;;;;;;;2.95;1.83;;;22.50;99.90;;;;;;5070099;28;20514;-75
2022/08/07 10:40:59;;;;;;;4.30;2.00;;;22.30;99.90;;;;;;5050626;28;20439;-75
2022/08/07 10:44:03;;;;;;;3.10;1.98;;;22.30;99.90;;;;;;5056251;28;20423;-74
2022/08/07 10:46:40;;;;;;;3.40;1.93;;;22.50;99.90;;;;;;5072965;28;20504;-74
2022/08/07 10:49:25;;;;;;;2.47;1.60;;;22.50;99.90;;;;;;5089128;28;20779;-77
2022/08/07 10:51:56;;;;;;;3.35;1.85;;;22.20;99.90;;;;;;5069972;28;20420;-77
2022/08/07 10:54:36;;;;;;;3.60;2.10;;;22.30;99.90;;;;;;5086820;28;20923;-77
2022/08/07 10:57:33;;;;;;;3.17;1.92;;;22.40;99.90;;;;;;5071591;28;20415;-77
2022/08/07 11:00:09;;;;;;;3.58;1.90;;;22.70;99.90;;;;;;5065089;28;20491;-75
2022/08/07 11:02:57;;;;;;;2.70;1.77;;;23.00;99.90;;;;;;5082083;28;20421;-75
2022/08/07 11:05:44;;;;;;;2.65;1.90;;;23.30;99.90;;;;;;5037208;28;20401;-76
2022/08/07 11:08:25;;;;;;;6.32;1.90;;;23.60;99.90;;;;;;5067983;28;20425;-79
2022/08/07 11:11:07;;;;;;;3.30;1.80;;;23.80;99.90;;;;;;5071866;28;20749;-76
2022/08/07 11:13:38;;;;;;;3.72;2.00;;;23.90;99.90;;;;;;5098651;28;20428;-76
2022/08/07 11:16:28;;;;;;;3.22;1.90;;;23.70;99.90;;;;;;5072173;28;20428;-77
2022/08/07 11:19:15;;;;;;;3.28;1.90;;;23.40;99.90;;;;;;5086449;28;21016;-77
2022/08/07 11:22:04;;;;;;;4.00;2.00;;;23.60;99.90;;;;;;5051348;28;20435;-82
2022/08/07 11:24:40;;;;;;;4.05;2.10;;;23.70;99.90;;;;;;5058745;28;20522;-81
2022/08/07 11:27:28;;;;;;;3.78;2.00;;;23.10;99.90;;;;;;5055959;28;20407;-77
2022/08/07 11:30:09;;;;;;;3.20;2.07;;;22.90;99.90;;;;;;5066913;28;20567;-76
2022/08/07 11:32:45;;;;;;;2.63;1.80;;;22.90;99.90;;;;;;5067042;28;20403;-76
2022/08/07 11:35:21;;;;;;;2.95;1.90;;;23.10;99.90;;;;;;5042497;28;20500;-76
2022/08/07 11:38:18;;;;;;;3.77;1.80;;;23.70;99.90;;;;;;5074426;28;20451;-75
2022/08/07 11:41:07;;;;;;;2.45;1.70;;;23.70;99.90;;;;;;5059591;28;20914;-75
2022/08/07 11:43:54;;;;;;;5.03;1.87;;;23.80;99.90;;;;;;5053928;28;20447;-76
2022/08/07 11:46:20;;;;;;;3.08;1.90;;;24.20;99.90;;;;;;5071445;28;20413;-76
2022/08/07 11:48:57;;;;;;;2.80;2.00;;;24.80;99.90;;;;;;5054388;28;20424;-76
2022/08/07 11:51:32;;;;;;;3.88;2.10;;;25.30;99.90;;;;;;5067880;28;20416;-76
2022/08/07 11:54:15;;;;;;;3.80;1.97;;;24.90;99.90;;;;;;5067686;28;20424;-76
2022/08/07 11:57:00;;;;;;;3.13;2.00;;;24.80;99.90;;;;;;5068216;28;20423;-76
2022/08/07 11:59:36;;;;;;;3.03;1.77;;;24.30;99.90;;;;;;5080971;28;20388;-76
2022/08/07 12:02:23;;;;;;;3.53;2.05;;;24.20;99.90;;;;;;5068955;28;20415;-76
2022/08/07 12:05:00;;;;;;;2.92;2.00;;;24.00;99.90;;;;;;5104610;28;20442;-76
2022/08/07 12:07:52;;;;;;;2.90;1.80;;;24.20;99.90;;;;;;5066697;28;20422;-76
2022/08/07 12:10:22;;;;;;;4.10;2.10;;;24.30;99.90;;;;;;5054621;28;20431;-76
2022/08/07 12:13:05;;;;;;;3.20;1.60;;;24.70;99.90;;;;;;5070556;28;20422;-77
2022/08/07 12:15:40;;;;;;;2.88;1.77;;;25.00;99.90;;;;;;5055978;28;20432;-76
2022/08/07 12:18:33;;;;;;;2.83;1.70;;;24.90;99.90;;;;;;5092092;27;20417;-75
2022/08/07 12:21:15;;;;;;;3.05;1.90;;;24.90;99.90;;;;;;5094466;28;20423;-76
2022/08/07 12:24:02;;;;;;;3.35;1.80;;;24.80;99.90;;;;;;5069535;28;20424;-76
2022/08/07 12:26:39;;;;;;;3.00;1.90;;;25.20;99.90;;;;;;5066239;28;20415;-76
2022/08/07 12:29:14;;;;;;;4.05;1.80;;;25.50;99.90;;;;;;5053527;28;20493;-77
2022/08/07 12:31:49;;;;;;;3.15;1.85;;;25.70;99.90;;;;;;5056580;28;20426;-77
2022/08/07 12:34:17;;;;;;;2.97;1.90;;;25.50;99.90;;;;;;5059567;28;20423;-76
2022/08/07 12:36:44;;;;;;;3.22;2.03;;;24.90;99.90;;;;;;5052577;28;20938;-77
2022/08/07 12:39:11;;;;;;;3.53;2.50;;;24.80;99.90;;;;;;5053489;28;20413;-78
2022/08/07 12:41:39;;;;;;;4.65;2.78;;;24.40;99.90;;;;;;5054342;28;20423;-77
2022/08/07 12:44:09;;;;;;;3.53;2.83;;;24.10;99.90;;;;;;5110097;27;20710;-77
2022/08/07 12:47:05;;;;;;;6.50;3.17;;;23.50;99.90;;;;;;5070111;28;20427;-77
2022/08/07 12:49:54;;;;;;;4.15;2.83;;;23.50;99.90;;;;;;5052657;28;20448;-76
2022/08/07 12:52:34;;;;;;;4.63;2.75;;;22.90;99.90;;;;;;5071305;28;20408;-76
2022/08/07 12:55:08;;;;;;;5.53;3.03;;;23.00;99.90;;;;;;5052438;28;20446;-76
2022/08/07 12:57:37;;;;;;;5.40;2.88;;;23.50;99.90;;;;;;5070088;28;20408;-76
2022/08/07 13:00:06;;;;;;;4.47;2.75;;;23.40;99.90;;;;;;5041773;28;20974;-76
2022/08/07 13:02:50;;;;;;;5.25;2.88;;;23.30;99.90;;;;;;5035849;28;20423;-77
2022/08/07 13:05:43;;;;;;;5.30;3.10;;;23.80;99.90;;;;;;5068830;28;20455;-77
2022/08/07 13:08:28;;;;;;;5.38;3.03;;;24.00;99.90;;;;;;5054255;28;20400;-77
2022/08/07 13:11:23;;;;;;;5.83;2.87;;;23.70;99.90;;;;;;5052819;28;20470;-77
2022/08/07 13:14:00;;;;;;;4.50;2.70;;;23.80;99.90;;;;;;5034082;28;20420;-77
2022/08/07 13:16:47;;;;;;;5.20;3.20;;;23.90;99.90;;;;;;5063323;28;20451;-77
2022/08/07 13:19:22;;;;;;;4.57;3.00;;;23.80;99.90;;;;;;5076803;28;20476;-77
2022/08/07 13:21:58;;;;;;;4.78;2.75;;;24.20;99.90;;;;;;5052241;28;20408;-77
2022/08/07 13:24:51;;;;;;;4.78;2.63;;;24.60;99.90;;;;;;5053691;28;20912;-77
2022/08/07 13:27:26;;;;;;;5.60;2.78;;;25.10;99.90;;;;;;5070512;28;20425;-77
2022/08/07 13:30:01;;;;;;;4.03;2.50;;;25.20;99.90;;;;;;5071230;28;20442;-77
2022/08/07 13:32:44;;;;;;;5.13;2.70;;;25.50;99.90;;;;;;5042886;28;20912;-76
2022/08/07 13:35:36;;;;;;;3.85;2.50;;;25.40;99.90;;;;;;5047750;28;20970;-77
2022/08/07 13:38:20;;;;;;;3.45;2.20;;;25.20;99.90;;;;;;5081508;28;20415;-77
2022/08/07 13:41:05;;;;;;;5.18;2.67;;;25.40;99.90;;;;;;5054249;28;20425;-80
2022/08/07 13:43:33;;;;;;;3.93;2.50;;;25.00;99.90;;;;;;5071550;28;20487;-80
2022/08/07 13:46:01;;;;;;;5.35;2.63;;;25.00;99.90;;;;;;5073611;28;20410;-81
2022/08/07 13:48:32;;;;;;;3.70;2.45;;;25.00;99.90;;;;;;5054506;28;20450;-80
2022/08/07 13:50:59;;;;;;;3.72;2.20;;;25.20;99.90;;;;;;5055260;28;20470;-80
2022/08/07 13:53:36;;;;;;;4.38;2.20;;;25.50;99.90;;;;;;5038154;28;20445;-81
2022/08/07 13:56:05;;;;;;;5.30;2.25;;;25.60;99.90;;;;;;5042353;28;20418;-80
2022/08/07 14:01:28;;;;;;;3.25;2.03;;;25.20;99.90;;;;;;5047516;28;20424;-80
2022/08/07 14:03:55;;;;;;;4.50;2.05;;;24.90;99.90;;;;;;5030194;28;20426;-80
2022/08/07 14:06:22;;;;;;;3.05;1.90;;;24.80;99.90;;;;;;5052550;28;20473;-80
2022/08/07 14:08:53;;;;;;;3.88;2.00;;;24.50;99.90;;;;;;5043427;28;20483;-80
2022/08/07 14:11:28;;;;;;;4.82;1.80;;;24.40;99.90;;;;;;5051316;28;20424;-78
2022/08/07 14:14:02;;;;;;;2.90;1.90;;;24.50;99.90;;;;;;5044676;28;20986;-78
2022/08/07 14:16:42;;;;;;;3.40;1.80;;;23.90;99.90;;;;;;5052855;28;20440;-80
2022/08/07 14:19:22;;;;;;;3.75;1.88;;;23.70;99.90;;;;;;5049547;28;20551;-79
2022/08/07 14:21:51;;;;;;;2.97;1.83;;;24.30;99.90;;;;;;5055266;28;20436;-79
2022/08/07 14:24:32;;;;;;;3.58;1.70;;;24.10;99.90;;;;;;5087578;28;20433;-79
2022/08/07 14:27:03;;;;;;;3.22;1.70;;;23.80;99.90;;;;;;5048098;28;20424;-79
2022/08/07 14:29:34;;;;;;;2.80;1.70;;;23.30;99.90;;;;;;5022887;28;20431;-80
2022/08/07 14:32:06;;;;;;;3.30;1.67;;;23.40;99.90;;;;;;5032785;28;20799;-79
2022/08/07 14:34:34;;;;;;;2.45;1.60;;;23.30;99.90;;;;;;5051837;28;20436;-79
2022/08/07 14:37:01;;;;;;;3.67;1.52;;;23.30;99.90;;;;;;5054198;28;20424;-79
2022/08/07 14:39:29;;;;;;;3.43;1.60;;;23.50;99.90;;;;;;5017385;28;20422;-79
2022/08/07 14:41:57;;;;;;;3.00;1.55;;;23.90;99.90;;;;;;5048796;28;20488;-79
2022/08/07 14:44:25;;;;;;;3.53;1.80;;;24.20;99.90;;;;;;5039515;28;20439;-80
2022/08/07 14:46:55;;;;;;;3.08;1.60;;;24.20;99.90;;;;;;5058128;28;20422;-80
2022/08/07 14:49:28;;;;;;;3.00;1.60;;;24.10;99.90;;;;;;5037891;28;20417;-79
2022/08/07 14:51:59;;;;;;;3.13;1.60;;;24.10;99.90;;;;;;5058198;28;20455;-80
2022/08/07 14:54:30;;;;;;;3.67;1.80;;;24.00;99.90;;;;;;5035678;28;21004;-80
2022/08/07 14:57:01;;;;;;;6.03;2.40;;;24.40;99.90;;;;;;5074395;28;20408;-79
2022/08/07 14:59:35;;;;;;;3.25;2.03;;;24.40;99.90;;;;;;5043241;28;20910;-80
2022/08/07 15:02:11;;;;;;;4.68;2.10;;;24.30;99.90;;;;;;5053255;28;20407;-80
2022/08/07 15:04:45;;;;;;;3.60;1.88;;;24.30;99.90;;;;;;5053764;28;20401;-79
2022/08/07 15:07:16;;;;;;;3.38;1.88;;;24.60;99.90;;;;;;5037405;28;20448;-79
2022/08/07 15:09:44;;;;;;;4.70;1.77;;;24.70;99.90;;;;;;5053447;28;20405;-80
2022/08/07 15:12:21;;;;;;;3.33;1.80;;;24.50;99.90;;;;;;5057996;28;20424;-79
2022/08/07 15:14:55;;;;;;;3.55;1.90;;;24.80;99.90;;;;;;5068710;28;20428;-79
2022/08/07 15:17:31;;;;;;;3.63;1.88;;;24.80;99.90;;;;;;5073784;28;20479;-80
2022/08/07 15:20:00;;;;;;;4.40;2.20;;;25.00;99.90;;;;;;5073962;28;20410;-79
2022/08/07 15:22:29;;;;;;;3.77;2.23;;;25.20;99.90;;;;;;5075431;28;20447;-78
2022/08/07 15:24:57;;;;;;;4.93;2.40;;;25.20;99.90;;;;;;5079170;28;20959;-80
2022/08/07 15:27:26;;;;;;;4.20;2.38;;;25.70;99.90;;;;;;5052960;28;20405;-79
2022/08/07 15:30:06;;;;;;;4.55;2.50;;;25.80;99.90;;;;;;5053781;28;20409;-80
2022/08/07 15:32:33;;;;;;;4.65;2.33;;;26.00;99.90;;;;;;5056866;28;20415;-79
2022/08/07 15:35:02;;;;;;;4.97;2.42;;;26.10;99.90;;;;;;5073298;28;20424;-79
2022/08/07 15:37:33;;;;;;;3.80;2.30;;;26.20;99.90;;;;;;5080020;28;20909;-79
2022/08/07 15:40:02;;;;;;;5.30;2.50;;;26.20;99.90;;;;;;5073074;28;20462;-79
2022/08/07 15:42:40;;;;;;;4.55;2.10;;;26.50;99.90;;;;;;5057134;28;20455;-79
2022/08/07 15:45:29;;;;;;;4.38;2.20;;;26.80;99.90;;;;;;5053062;28;20812;-79
2022/08/07 15:47:59;;;;;;;4.72;2.28;;;26.90;99.90;;;;;;5036498;28;20405;-79
2022/08/07 15:50:36;;;;;;;3.97;2.45;;;26.80;99.90;;;;;;5052828;28;20486;-79
2022/08/07 15:53:30;;;;;;;5.85;2.58;;;26.70;99.90;;;;;;5070063;28;20419;-79
2022/08/07 15:56:03;;;;;;;4.90;2.83;;;25.90;99.90;;;;;;5085160;28;20440;-79
2022/08/07 15:58:58;;;;;;;5.20;2.75;;;24.90;99.90;;;;;;5086427;28;20420;-79
2022/08/07 16:01:37;;;;;;;4.53;2.43;;;24.90;99.90;;;;;;5050458;28;20417;-76
2022/08/07 16:04:07;;;;;;;4.15;2.60;;;25.40;99.90;;;;;;5082902;28;20441;-77
2022/08/07 16:06:56;;;;;;;7.97;2.80;;;25.90;99.90;;;;;;5051353;28;20413;-76
2022/08/07 16:09:25;;;;;;;5.30;2.95;;;25.50;99.90;;;;;;5084431;28;20507;-75
2022/08/07 16:11:54;;;;;;;6.18;2.85;;;24.90;99.90;;;;;;5079821;28;20425;-76
2022/08/07 16:14:57;;;;;;;6.18;3.20;;;24.70;99.90;;;;;;5080420;28;20504;-76
2022/08/07 16:17:57;;;;;;;6.05;2.88;;;24.20;99.90;;;;;;5065455;28;20411;-77
2022/08/07 16:20:44;;;;;;;5.10;2.90;;;24.30;99.90;;;;;;5051713;28;20421;-77
2022/08/07 16:23:21;;;;;;;6.10;3.00;;;25.20;99.90;;;;;;5062259;28;20481;-77
2022/08/07 16:26:00;;;;;;;5.27;3.40;;;26.00;99.90;;;;;;5048643;28;20403;-77
2022/08/07 16:28:37;;;;;;;5.32;2.83;;;26.20;99.90;;;;;;5065581;28;20427;-77
2022/08/07 16:31:26;;;;;;;6.03;3.03;;;26.30;99.90;;;;;;5075165;28;20429;-77
2022/08/07 16:33:55;;;;;;;6.30;2.85;;;26.30;99.90;;;;;;5079065;28;20586;-77
2022/08/07 16:36:52;;;;;;;6.72;2.97;;;26.40;99.90;;;;;;5034191;28;20434;-77
2022/08/07 16:39:31;;;;;;;5.53;3.00;;;26.10;99.90;;;;;;5068604;28;20426;-77
2022/08/07 16:42:05;;;;;;;5.82;3.17;;;25.20;99.90;;;;;;5042316;28;20424;-77
2022/08/07 16:45:13;;;;;;;7.25;3.45;;;24.90;99.90;;;;;;5047216;28;20437;-77
2022/08/07 16:47:59;;;;;;;5.82;3.20;;;25.20;99.90;;;;;;5048037;28;20429;-77
2022/08/07 16:50:57;;;;;;;4.88;2.90;;;25.60;99.90;;;;;;5041701;28;20501;-77
2022/08/07 16:53:36;;;;;;;5.55;2.80;;;25.80;99.90;;;;;;5083632;28;20927;-77
2022/08/07 16:56:13;;;;;;;6.38;3.50;;;26.20;99.90;;;;;;5079781;28;20431;-77
2022/08/07 16:59:06;;;;;;;7.68;3.30;;;26.30;99.90;;;;;;5081456;28;20999;-77
2022/08/07 17:01:34;;;;;;;4.95;3.22;;;26.10;99.90;;;;;;5047685;28;20416;-77
2022/08/07 17:04:21;;;;;;;7.80;3.58;;;25.50;99.90;;;;;;5035633;28;20414;-79
2022/08/07 17:07:06;;;;;;;6.82;3.60;;;24.50;99.90;;;;;;5094992;28;20737;-79
2022/08/07 17:10:14;;;;;;;5.70;3.67;;;23.00;99.90;;;;;;5067409;28;20419;-78
2022/08/07 17:12:49;;;;;;;8.77;4.00;;;22.80;99.90;;;;;;5068953;28;20486;-78
2022/08/07 17:15:20;;;;;;;10.30;3.90;;;22.90;99.90;;;;;;5083977;28;20432;-78
2022/08/07 17:17:45;;;;;;;5.60;3.92;;;22.70;99.90;;;;;;5066452;28;20502;-78
2022/08/07 17:20:36;;;;;;;7.03;3.73;;;23.20;99.90;;;;;;5085520;28;20490;-78
2022/08/07 17:23:13;;;;;;;8.38;3.88;;;23.80;99.90;;;;;;5069544;28;20455;-78
2022/08/07 17:25:54;;;;;;;6.20;3.60;;;24.10;99.90;;;;;;5079313;28;20458;-78
2022/08/07 17:28:34;;;;;;;8.13;3.63;;;24.80;99.90;;;;;;5064148;28;20427;-78
2022/08/07 17:31:03;;;;;;;6.28;3.67;;;25.10;99.90;;;;;;5061462;28;20423;-78
2022/08/07 17:33:35;;;;;;;7.78;3.65;;;25.40;99.90;;;;;;5065863;28;20419;-78
2022/08/07 17:36:10;;;;;;;5.88;3.10;;;25.70;99.90;;;;;;5062927;28;20416;-78
2022/08/07 17:39:01;;;;;;;7.28;3.50;;;25.50;99.90;;;;;;5094508;28;20429;-78
2022/08/07 17:41:49;;;;;;;7.45;3.28;;;25.70;99.90;;;;;;5064829;28;20415;-78
2022/08/07 17:44:39;;;;;;;6.57;3.03;;;26.00;99.90;;;;;;5065221;28;20543;-78
2022/08/07 17:47:17;;;;;;;8.43;3.40;;;26.10;99.90;;;;;;5045089;28;20873;-78
2022/08/07 17:50:00;;;;;;;6.40;3.20;;;26.00;99.90;;;;;;5050075;28;20431;-77
2022/08/07 17:52:34;;;;;;;7.00;3.07;;;25.80;99.90;;;;;;5077883;28;20432;-77
2022/08/07 17:55:25;;;;;;;6.63;3.42;;;24.50;99.90;;;;;;5055648;28;20841;-77
2022/08/07 17:58:23;;;;;;;7.35;3.10;;;23.50;99.90;;;;;;5093023;28;20857;-77